CheckWX is a tool to help pilots better visualize weather data.  It is not intended as a substitute for an official pre-flight weather briefing.

04:50:31 UTC

EPSC METAR
Szczecin-Goleniów "Solidarność" Airport
Goleniow, Poland
Current

21 mins ago

EPSC 180430Z 14005KT CAVOK 17/13 Q1007
Observed
Aug-18 @ 04:30 UTC
Wind
  • 140° at 5 KTS
Visibility
10,000+ meters
Flight Rules
VFR
Cloud Levels
  • Clear skies
Temperature
17°C / 63°F
Dewpoint
13°C / 55°F
Humidity
77%
Altimeter
29.73" Hg
Pressure
1006.92 hPa
Previous

51 mins ago

EPSC 180400Z 13004KT CAVOK 16/13 Q1007
Observed
Aug-18 @ 04:00 UTC
Wind
  • 130° at 4 KTS
Visibility
10,000+ meters
Flight Rules
VFR
Cloud Levels
  • Clear skies
Temperature
16°C / 61°F
Dewpoint
13°C / 55°F
Humidity
83%
Altimeter
29.73" Hg
Pressure
1006.92 hPa
Previous

1 hour ago

EPSC 180330Z 12003KT CAVOK 17/12 Q1007
Observed
Aug-18 @ 03:30 UTC
Wind
  • 120° at 3 KTS
Visibility
10,000+ meters
Flight Rules
VFR
Cloud Levels
  • Clear skies
Temperature
17°C / 63°F
Dewpoint
12°C / 54°F
Humidity
73%
Altimeter
29.73" Hg
Pressure
1006.92 hPa